Live≪ 1er Open VTT des Dunes de Flandre 2015 ≫

Le 20/12/2015 Attention événement 2015 !!! Calendrier 2017



Suivez en direct le live de "1er Open VTT des Dunes de Flandre 2015", Sun 20 December 2015

10km25km50km

10km
Scratch Nb Tours N° dossard Nom Prénom Club Temps Cat. Clt. Cat. T1 T2 T3 T4 T5
0001 5 501 RAMON Lucien O HESDIN MARCONN 00:22:38 KID's M 1 00:00:00 00:00:00 00:00:00 00:00:00 00:00:00
0002 5 502 DE GRAAF Robin TEAM VTT EKOI PA 00:25:16 KID's M 2 00:00:00 00:00:00 00:00:00 00:00:00 00:00:00
0003 5 537 MIROUX Elian O HESDIN MARCONN 00:25:58 KID's M 3 00:00:00 00:00:00 00:00:00 00:00:00 00:00:00
0004 5 520 DELECOURT Lucie VC ST OMER 00:28:55 KID's F 1 00:00:00 00:00:00 00:00:00 00:00:00 00:00:00
0005 5 534 REGNIER Julien TEAM VTT EKOI PA 00:28:58 KID's M 4 00:00:00 00:00:00 00:00:00 00:00:00 00:00:00
0006 5 528 HUYGHE Enzo O GRANDE SYNTHE 00:28:58 KID's M 5 00:00:00 00:00:00 00:00:00 00:00:00 00:00:00
0007 5 513 TRICOT Adrien TRIATHLON LITTOR 00:28:59 KID's M 6 00:00:00 00:00:00 00:00:00 00:00:00 00:00:00
0008 5 503 LELIEVRE Clea TOUQUET ACC 00:29:35 KID's F 2 00:00:00 00:00:00 00:00:00 00:00:00 00:00:00
0009 5 535 EMERY Sacha TRIATHLON LITTOR 00:29:55 KID's M 7 00:00:00 00:00:00 00:00:00 00:00:00 00:00:00
0010 5 521 DUCROCQ Gregoire BMX C LUMBRES 00:30:33 KID's M 8 00:00:00 00:00:00 00:00:00 00:00:00 00:00:00
0011 5 505 DESCAMPS Arthur TRIATHLON LITTOR 00:31:02 KID's M 9 00:00:00 00:00:00 00:00:00 00:00:00 00:00:00
0012 5 526 BOULLET Léo Paul O GRANDE SYNTHE 00:31:07 KID's M 10 00:00:00 00:00:00 00:00:00 00:00:00 00:00:00
0013 5 538 DUSART Leo TRIATHLON LITTOR 00:31:10 KID's M 11 00:00:00 00:00:00 00:00:00 00:00:00 00:00:00
0014 5 532 DRUON Victorien VTT DES 2 CAPS 00:31:31 KID's M 12 00:00:00 00:00:00 00:00:00 00:00:00 00:00:00
0015 5 509 EVRARD Jorris TRIATHLON LITTOR 00:31:41 KID's M 13 00:00:00 00:00:00 00:00:00 00:00:00 00:00:00
0016 5 514 DUPONT Leo TRIATHLON LITTOR 00:31:42 KID's M 14 00:00:00 00:00:00 00:00:00 00:00:00 00:00:00
0017 5 523 VIGNOLLES Jules AMIENS TRIATHLON 00:32:25 KID's M 15 00:00:00 00:00:00 00:00:00 00:00:00 00:00:00
0018 5 524 BONNAY Lucas VC ROUBAIX LILLE 00:32:26 KID's M 16 00:00:00 00:00:00 00:00:00 00:00:00 00:00:00
0019 5 507 HAZEBROUCK Matteo TRIATHLON LITTOR 00:32:36 KID's M 17 00:00:00 00:00:00 00:00:00 00:00:00 00:00:00
0020 5 536 BOULLET Arthur O GRANDE SYNTHE 00:34:09 KID's M 18 00:00:00 00:00:00 00:00:00 00:00:00 00:00:00
0021 5 511 LOBBRECHT Romain TRIATHLON LITTOR 00:34:49 KID's M 19 00:00:00 00:00:00 00:00:00 00:00:00 00:00:00
0022 5 515 DEVERSENNE Alexis TRIATHLON LITTOR 00:35:43 KID's M 20 00:00:00 00:00:00 00:00:00 00:00:00 00:00:00
0023 5 527 HAYNAU Randy O GRANDE SYNTHE 00:36:40 KID's M 21 00:00:00 00:00:00 00:00:00 00:00:00 00:00:00
0024 5 504 WAELES Juliette TRIATHLON LITTOR 00:36:57 KID's F 3 00:00:00 00:00:00 00:00:00 00:00:00 00:00:00
0025 5 517 VISTOT Balthazar TRIATHLON LITTOR 00:36:57 KID's M 22 00:00:00 00:00:00 00:00:00 00:00:00 00:00:00
0026 5 508 OBEIN Clement TRIATHLON LITTOR 00:38:20 KID's M 23 00:00:00 00:00:00 00:00:00 00:00:00 00:00:00
0027 5 510 LOBBRECHT Celine TRIATHLON LITTOR 00:38:51 KID's M 24 00:00:00 00:00:00 00:00:00 00:00:00 00:00:00
0028 5 516 BOUCHERY Emilien TRIATHLON LITTOR 00:40:22 KID's M 25 00:00:00 00:00:00 00:00:00 00:00:00 00:00:00
0029 5 530 DAENENS Romain BMX LA GORGUE 00:40:24 KID's M 26 00:00:00 00:00:00 00:00:00 00:00:00 00:00:00
0030 5 506 SCHABAILLE Matteo TRIATHLON LITTOR 00:43:33 KID's M 27 00:00:00 00:00:00 00:00:00 00:00:00 00:00:00
0031 5 518 TANGE Lola TRIATHLON LITTOR 00:44:29 KID's F 4 00:00:00 00:00:00 00:00:00 00:00:00 00:00:00
DNF 3 512 VISTOT Leo Paul TRIATHLON LITTOR 00:00:00 KID's M 0 00:00:00 00:00:00 00:00:00 00:00:00 00:00:00
DNF 4 519 VAN DER GUCHT Eva 00:00:00 KID's F 0 00:00:00 00:00:00 00:00:00 00:00:00 00:00:00
DNF 4 531 LEMAITRE Tom 00:00:00 KID's M 0 00:00:00 00:00:00 00:00:00 00:00:00 00:00:00
DNS 0 522 DECROIX Joshua VC ST OMER 00:00:00 KID's M 0 00:00:00 00:00:00 00:00:00 00:00:00 00:00:00
DNS 0 525 BONNAY Alexis VC ROUBAIX LILLE 00:00:00 KID's M 0 00:00:00 00:00:00 00:00:00 00:00:00 00:00:00
DNS 0 529 DEWINTRE Gautier VC ST OMER 00:00:00 KID's M 0 00:00:00 00:00:00 00:00:00 00:00:00 00:00:00
DNS 0 533 BEUCKELAERE Lennert WON 00:00:00 KID's M 0 00:00:00 00:00:00 00:00:00 00:00:00 00:00:00


25km
Scratch Nb Tours N° dossard Nom Prénom Club Temps Cat. Clt. Cat. KM7 KM14 KM17 KM21
0001 2 302 SERGENT Guillaume SC BOULONNAIS 00:48:51 Jeunes M 1 00:00:00 00:00:00 00:00:00 00:00:00
0002 2 356 LELIEVRE Michel TOUQUET ACC 00:49:04 Master 2 M 1 00:00:00 00:00:00 00:00:00 00:00:00
0003 2 304 MATHIAS Corentin SC BOULONNAIS 00:50:57 Senior M 1 00:00:00 00:00:00 00:00:00 00:00:00
0004 2 303 DELALEAU Antoine O HESDIN MARCONN 00:51:43 Senior M 2 00:00:00 00:00:00 00:00:00 00:00:00
0005 2 396 BIZ Mickael TRIATHLON LITTOR 00:53:04 Master 1 M 1 00:00:00 00:00:00 00:00:00 00:00:00
0006 2 357 VERGNIEZ Valentin SC BOULONNAIS 00:53:05 Jeunes M 2 00:00:00 00:00:00 00:00:00 00:00:00
0007 2 371 NICK Clarebout 00:53:09 Master 1 M 2 00:00:00 00:00:00 00:00:00 00:00:00
0008 2 311 QUENEHEN Emmanuel VTT LES BRACOS 00:53:51 Master 1 M 3 00:00:00 00:00:00 00:00:00 00:00:00
0009 2 326 KERCKHOVE James CT T VERSCHIL 00:53:52 Master 2 M 2 00:00:00 00:00:00 00:00:00 00:00:00
0010 2 359 REVILLON Anthony VC ST OMER 00:55:41 Jeunes M 3 00:00:00 00:00:00 00:00:00 00:00:00
0011 2 395 MENNEBOO François DUNKERQUE LITTOR 00:55:48 Senior M 3 00:00:00 00:00:00 00:00:00 00:00:00
0012 2 361 DEGRUTERE Corentin EC HAZEBROUCK ME 00:56:23 Jeunes M 4 00:00:00 00:00:00 00:00:00 00:00:00
0013 2 340 BUTTIAUX Séverin TOUQUET ACC 00:56:30 Master 1 M 4 00:00:00 00:00:00 00:00:00 00:00:00
0014 2 364 BRUNOT Yoann SKWAL ATHLON 00:56:42 Master 2 M 3 00:00:00 00:00:00 00:00:00 00:00:00
0015 2 382 HENNERE Loic SC BOULONNAIS 00:58:18 Jeunes M 5 00:00:00 00:00:00 00:00:00 00:00:00
0016 2 318 DELECOURT Jerome VC ST OMER 00:58:33 Jeunes M 6 00:00:00 00:00:00 00:00:00 00:00:00
0017 2 388 MAHY Benoit LES GRIZZLYS BER 00:58:37 Master 1 M 5 00:00:00 00:00:00 00:00:00 00:00:00
0018 2 333 RIAHI Mehdy VC ARMENTIERES 00:59:27 Master 1 M 6 00:00:00 00:00:00 00:00:00 00:00:00
0019 2 428 TONNERRE Lucas 00:59:33 Senior M 4 00:00:00 00:00:00 00:00:00 00:00:00
0020 2 317 JOONNEKINDT Mickaël 00:59:35 Master 1 M 7 00:00:00 00:00:00 00:00:00 00:00:00
0021 2 387 TOURSEL Johann CC ISBERGUES MOL 01:00:33 Master 1 M 8 00:00:00 00:00:00 00:00:00 00:00:00
0022 2 376 VIGNOLLES Louis AMIENS TRIATHLON 01:01:02 Jeunes M 7 00:00:00 00:00:00 00:00:00 00:00:00
0023 2 339 LOBBRECHT Cedric TRIATHLON LITTOR 01:01:19 Master 2 M 4 00:00:00 00:00:00 00:00:00 00:00:00
0024 2 375 DEWAVRIN Florent AVELIN CYCLING T 01:01:29 Master 1 M 9 00:00:00 00:00:00 00:00:00 00:00:00
0025 2 329 THERY Vincent SKWAL ATHLON 01:01:30 Master 2 M 5 00:00:00 00:00:00 00:00:00 00:00:00
0026 2 409 CARRU Denis EC D'HERMELINGHE 01:01:47 Master 4 M 1 00:00:00 00:00:00 00:00:00 00:00:00
0027 2 349 HULO Stephane UNION CYCLISTE L 01:01:53 Master 3 M 1 00:00:00 00:00:00 00:00:00 00:00:00
0028 2 345 LAMOUR Maxime 01:02:03 Senior M 5 00:00:00 00:00:00 00:00:00 00:00:00
0029 2 429 DUMINIL Enzo 01:02:24 Senior M 6 00:00:00 00:00:00 00:00:00 00:00:00
0030 2 350 SPECENIER Xavier RO COMINOISE 01:04:10 Master 2 M 6 00:00:00 00:00:00 00:00:00 00:00:00
0031 2 392 WYON Fabrice 01:05:00 Master 2 M 7 00:00:00 00:00:00 00:00:00 00:00:00
0032 2 351 SPECENIER Remi VC ROUBAIX LILLE 01:05:01 Jeunes M 8 00:00:00 00:00:00 00:00:00 00:00:00
0033 2 414 DESOMER Sébastien TEAM O2PALE 01:05:02 Master 1 M 10 00:00:00 00:00:00 00:00:00 00:00:00
0034 2 379 CAPPE Thomas 01:05:15 Jeunes M 9 00:00:00 00:00:00 00:00:00 00:00:00
0035 2 319 MERCHEZ Merchez 01:05:27 Senior M 7 00:00:00 00:00:00 00:00:00 00:00:00
0036 2 402 CHEVALIER Bertrand 01:05:35 Master 2 M 8 00:00:00 00:00:00 00:00:00 00:00:00
0037 2 424 HANCHUELLE Nicolas FF CYCLO 01:05:37 Master 1 M 11 00:00:00 00:00:00 00:00:00 00:00:00
0038 2 342 ROELENS Greg 01:05:52 Senior M 8 00:00:00 00:00:00 00:00:00 00:00:00
0039 2 316 SOLHEID Daniel 01:06:05 Master 2 M 9 00:00:00 00:00:00 00:00:00 00:00:00
0040 2 400 BULTÉ Olivier VTT WAILLY BEAUC 01:06:19 Master 1 M 12 00:00:00 00:00:00 00:00:00 00:00:00
0041 2 368 DUPREYS Benjamin ES ARQUES 01:07:14 Senior M 9 00:00:00 00:00:00 00:00:00 00:00:00
0042 2 352 PETIT Hubert SPORT EVASION DE 01:07:18 Master 2 M 10 00:00:00 00:00:00 00:00:00 00:00:00
0043 2 332 PHILIPPOT Laëtitia CULTURE DANSE ET 01:08:03 Master 1 F 1 00:00:00 00:00:00 00:00:00 00:00:00
0044 2 416 LE BOUILLE Emmanuel 01:08:29 Master 2 M 11 00:00:00 00:00:00 00:00:00 00:00:00
0045 2 360 ROTA Yohann LES GRIZZLYS BER 01:08:29 Senior M 10 00:00:00 00:00:00 00:00:00 00:00:00
0046 2 362 LEPRETRE Pierre LES GRIZZLYS BER 01:08:44 Senior M 11 00:00:00 00:00:00 00:00:00 00:00:00
0047 2 330 JAMINON Johann 01:08:50 Master 1 M 13 00:00:00 00:00:00 00:00:00 00:00:00
0048 2 323 BLOND Arthur 01:08:53 Jeunes M 10 00:00:00 00:00:00 00:00:00 00:00:00
0049 2 324 HEUGHEBAERT Sébastien 01:09:00 Master 1 M 14 00:00:00 00:00:00 00:00:00 00:00:00
0050 2 374 DEGROOTE Jean-Luc TOUQUET ACC 01:09:08 Master 4 M 2 00:00:00 00:00:00 00:00:00 00:00:00
0051 2 394 COQUERELLE Corentin 01:09:08 Senior M 12 00:00:00 00:00:00 00:00:00 00:00:00
0052 2 370 CORNU Isabelle LES GRIZZLYS BER 01:09:17 Master 2 F 1 00:00:00 00:00:00 00:00:00 00:00:00
0053 2 346 JOOSSEN Kevin 01:10:35 Senior M 13 00:00:00 00:00:00 00:00:00 00:00:00
0054 2 410 DRUON Gautier VTT DES 2 CAPS 01:10:38 Master 2 M 12 00:00:00 00:00:00 00:00:00 00:00:00
0055 2 328 WALLYN Romain 01:10:39 Master 1 M 15 00:00:00 00:00:00 00:00:00 00:00:00
0056 2 397 DELALEAU Yves 01:10:42 Master 3 M 2 00:00:00 00:00:00 00:00:00 00:00:00
0057 2 335 DULOT Frédéric OLYMPIQUE DE BUR 01:10:55 Senior M 14 00:00:00 00:00:00 00:00:00 00:00:00
0058 2 390 POLLET Raphael 01:11:12 Master 2 M 13 00:00:00 00:00:00 00:00:00 00:00:00
0059 2 406 SCHARRE Jacky 01:11:42 Master 1 M 16 00:00:00 00:00:00 00:00:00 00:00:00
0060 2 334 DESCAMPS Leo TRIATHLON LITTOR 01:11:57 Jeunes M 11 00:00:00 00:00:00 00:00:00 00:00:00
0061 2 315 BENAULT Sébastien CROMIGNONS 01:12:01 Master 1 M 17 00:00:00 00:00:00 00:00:00 00:00:00
0062 2 404 BOURDREL Sylvain 01:12:20 Master 3 M 3 00:00:00 00:00:00 00:00:00 00:00:00
0063 2 418 TIMMERMAN Oscar 01:12:57 Jeunes M 12 00:00:00 00:00:00 00:00:00 00:00:00
0064 2 337 ROSA Guillaume 01:12:58 Senior M 15 00:00:00 00:00:00 00:00:00 00:00:00
0065 2 358 MARGOLLE Nicolas LES GRIZZLYS BER 01:12:59 Master 2 M 14 00:00:00 00:00:00 00:00:00 00:00:00
0066 2 363 SCHARRE Jean-Marie 4 JOURS DUNKERQU 01:13:39 Master 1 M 18 00:00:00 00:00:00 00:00:00 00:00:00
0067 2 341 GHEERAERT Thierry TRIATHLON LITTOR 01:13:45 Master 2 M 15 00:00:00 00:00:00 00:00:00 00:00:00
0068 2 331 VAMBRE Sergio CULTURE DANSE ET 01:13:56 Master 3 M 4 00:00:00 00:00:00 00:00:00 00:00:00
0069 2 380 DENEUVILLE Bastien VC ST OMER 01:14:24 Jeunes M 13 00:00:00 00:00:00 00:00:00 00:00:00
0070 2 353 DAUCHY Anthony 01:14:29 Master 1 M 19 00:00:00 00:00:00 00:00:00 00:00:00
0071 2 354 NICOMETTE Laurent 01:14:29 Master 1 M 20 00:00:00 00:00:00 00:00:00 00:00:00
0072 2 430 HOESTLAND Lucas 01:15:56 Jeunes M 14 00:00:00 00:00:00 00:00:00 00:00:00
0073 2 391 BERMONT Jean Luc LES GRIZZLYS BER 01:16:12 Master 3 M 5 00:00:00 00:00:00 00:00:00 00:00:00
0074 2 427 DELECOLLE Nicolas 01:16:15 Master 1 M 21 00:00:00 00:00:00 00:00:00 00:00:00
0075 2 338 ROSA Stéphane TRIATHLON LITTOR 01:16:40 Master 2 M 16 00:00:00 00:00:00 00:00:00 00:00:00
0076 2 421 BLAEVOET Grégoire O GRANDE SYNTHE 01:16:49 Jeunes M 15 00:00:00 00:00:00 00:00:00 00:00:00
0077 2 420 BLAEVOET Ludovic O GRANDE SYNTHE 01:16:56 Master 2 M 17 00:00:00 00:00:00 00:00:00 00:00:00
0078 2 411 ROGEAU Jordan 01:16:57 Master 1 M 22 00:00:00 00:00:00 00:00:00 00:00:00
0079 2 348 BELAEN Stéphane TEAM VTT EKOI PA 01:16:57 Master 1 M 23 00:00:00 00:00:00 00:00:00 00:00:00
0080 2 401 BULTÉ David 01:17:05 Master 1 M 24 00:00:00 00:00:00 00:00:00 00:00:00
0081 2 417 LE BOUILLE Finlay 01:17:23 Jeunes M 16 00:00:00 00:00:00 00:00:00 00:00:00
0082 2 436 DENIS Fabien 01:18:52 Master 1 M 25 00:00:00 00:00:00 00:00:00 00:00:00
0083 2 437 COLIN David 01:18:52 Master 2 M 18 00:00:00 00:00:00 00:00:00 00:00:00
0084 2 378 HANQUEZ Emma VC ST OMER 01:18:52 Jeunes F 1 00:00:00 00:00:00 00:00:00 00:00:00
0085 2 393 HAEZEBROUCK Michel CL BRAY DUNES 01:18:54 Master 4 M 3 00:00:00 00:00:00 00:00:00 00:00:00
0086 2 398 FAURE Guillaume ATHLETIC CLUB MA 01:18:57 Master 2 M 19 00:00:00 00:00:00 00:00:00 00:00:00
0087 2 366 EVRARD David 01:19:13 Master 2 M 20 00:00:00 00:00:00 00:00:00 00:00:00
0088 2 372 MATHIAS Martine LES GRIZZLYS BER 01:20:17 Master 3 F 1 00:00:00 00:00:00 00:00:00 00:00:00
0089 2 413 REGNIER Marie TEAM VTT EKOI PA 01:20:22 Jeunes F 2 00:00:00 00:00:00 00:00:00 00:00:00
0090 2 344 DOUBLET Didier THIERACHE VTT 01:20:23 Master 3 M 6 00:00:00 00:00:00 00:00:00 00:00:00
0091 2 412 REGNIER Stéphane 01:20:23 Master 2 M 21 00:00:00 00:00:00 00:00:00 00:00:00
0092 2 415 STEVENOOT Catherine DUNKERQUE CYCLO 01:21:02 Master 3 F 2 00:00:00 00:00:00 00:00:00 00:00:00
0093 2 313 KROL David BAD BOY'S VTT 01:21:54 Master 2 M 22 00:00:00 00:00:00 00:00:00 00:00:00
0094 2 381 WESTEEL Sylvain 01:22:01 Master 1 M 26 00:00:00 00:00:00 00:00:00 00:00:00
0095 2 367 EVRARD Nicolas 01:22:12 Master 1 M 27 00:00:00 00:00:00 00:00:00 00:00:00
0096 2 405 POUBEL Olivier 01:23:07 Master 3 M 7 00:00:00 00:00:00 00:00:00 00:00:00
0097 2 399 FAURE Benjamin 01:23:14 Jeunes M 17 00:00:00 00:00:00 00:00:00 00:00:00
0098 2 403 DELANNOY Laurent 01:25:19 Master 2 M 23 00:00:00 00:00:00 00:00:00 00:00:00
0099 2 320 CROES Emmanuel 01:25:49 Master 2 M 24 00:00:00 00:00:00 00:00:00 00:00:00
0100 2 385 MRAOVIC Thierry 01:27:34 Master 2 M 25 00:00:00 00:00:00 00:00:00 00:00:00
0101 2 408 NAESSENS Bruno 01:28:17 Master 2 M 26 00:00:00 00:00:00 00:00:00 00:00:00
0102 2 407 CALLEWAERT Paul 01:28:18 Master 3 M 8 00:00:00 00:00:00 00:00:00 00:00:00
0103 2 439 COLPAERT Xavier 01:30:20 Master 3 M 9 00:00:00 00:00:00 00:00:00 00:00:00
0104 2 438 TREULIER Didier 01:30:20 Master 2 M 27 00:00:00 00:00:00 00:00:00 00:00:00
0105 2 384 LECHEF Bénédicte 01:30:35 Master 1 F 2 00:00:00 00:00:00 00:00:00 00:00:00
0106 2 321 FÉVRIER Frédy 01:31:54 Master 3 M 10 00:00:00 00:00:00 00:00:00 00:00:00
0107 2 355 SEILLIER Raphael XTREM'RIDERS 01:31:56 Senior M 16 00:00:00 00:00:00 00:00:00 00:00:00
0108 2 347 WOJTCZAK Magalie TEAM VTT EKOI PA 01:32:30 Master 1 F 3 00:00:00 00:00:00 00:00:00 00:00:00
0109 2 327 COUTIN Jean Claude SAINT POL SUR ME 01:34:30 Master 3 M 11 00:00:00 00:00:00 00:00:00 00:00:00
0110 2 336 DESQUIREZ Quentin OLYMPIQUE DE BUR 01:34:52 Senior M 17 00:00:00 00:00:00 00:00:00 00:00:00
0111 2 373 DESQUIREZ Florian FFM MERVILLOIS 01:35:36 Senior M 18 00:00:00 00:00:00 00:00:00 00:00:00
0112 2 312 VROOMHOUT Ludovic 01:37:30 Master 3 M 12 00:00:00 00:00:00 00:00:00 00:00:00
0113 2 419 DUTRIE Guy ASPTT BOULOGNE 01:37:31 Master 4 M 4 00:00:00 00:00:00 00:00:00 00:00:00
0114 2 343 MAHY Blandine THIERACHE VTT 01:45:21 Master 3 F 3 00:00:00 00:00:00 00:00:00 00:00:00
0115 2 325 JAMINON Thierry 01:56:16 Master 3 M 13 00:00:00 00:00:00 00:00:00 00:00:00
DNF 0 301 MEYERS Laurane AC DE BOURTHES E 00:00:00 Jeunes F 0 00:00:00 00:00:00 00:00:00 00:00:00
DNF 1 365 WILLEMS Hubert CYCLO CLUB DE BU 00:00:00 Master 3 M 0 00:00:00 00:00:00 00:00:00 00:00:00
DNF 1 369 FAUST Jérôme 00:00:00 Master 1 M 0 00:00:00 00:00:00 00:00:00 00:00:00
DNF 1 377 HANQUEZ Emmanuel SPORT EVASION DE 00:00:00 Master 2 M 0 00:00:00 00:00:00 00:00:00 00:00:00
DNF 0 383 DEZALIS Celine LES GRIZZLYS BER 00:00:00 Master 1 F 0 00:00:00 00:00:00 00:00:00 00:00:00
DNF 1 386 POIGNANT Jason TOUQUET ACC 00:00:00 Senior M 0 00:00:00 00:00:00 00:00:00 00:00:00
DNF 1 422 TEMBUYSER Hervè GRAVELINES TRIAT 00:00:00 Master 2 M 0 00:00:00 00:00:00 00:00:00 00:00:00
DNF 1 423 CARTON Marie-France CYCLO DUNKERQUE 00:00:00 Master 2 F 0 00:00:00 00:00:00 00:00:00 00:00:00
DNF 1 425 ANANIE Frederick 00:00:00 Master 2 M 0 00:00:00 00:00:00 00:00:00 00:00:00
DNF 1 426 HAYNAY Sophie 00:00:00 Jeunes F 0 00:00:00 00:00:00 00:00:00 00:00:00
DNF 1 431 TIMMERMAN Herbé 00:00:00 Master 3 M 0 00:00:00 00:00:00 00:00:00 00:00:00
DNF 1 432 THOMAS Christopher 00:00:00 Senior M 0 00:00:00 00:00:00 00:00:00 00:00:00
DNF 1 433 KLIS Thomas 00:00:00 Senior M 0 00:00:00 00:00:00 00:00:00 00:00:00
DNF 1 434 PIERRE Benoît 00:00:00 Senior M 0 00:00:00 00:00:00 00:00:00 00:00:00
DNF 1 435 HOYS Jeremy 00:00:00 Senior M 0 00:00:00 00:00:00 00:00:00 00:00:00
DNF 1 440 DUBOIS Frederic 00:00:00 Master 2 M 0 00:00:00 00:00:00 00:00:00 00:00:00
DNS 0 310 BEUVELET Philippe 00:00:00 Master 2 M 0 00:00:00 00:00:00 00:00:00 00:00:00
DNS 0 314 VANHOLLEBEKE Noël 00:00:00 Master 4 M 0 00:00:00 00:00:00 00:00:00 00:00:00
DNS 0 389 POLLET Frédérique 00:00:00 Master 3 F 0 00:00:00 00:00:00 00:00:00 00:00:00


50km
Scratch Nb Tours N° dossard Nom Prénom Club Temps Cat. Clt. Cat. KM7 KM14 KM17 KM21 KM32 KM39 KM42 KM47
0001 3 9 KOCHANSKI Steven O GRANDE SYNTHE 01:31:34 Senior M 1 00:00:00 00:00:00 00:00:00 00:00:00 00:00:00 00:00:00 00:00:00 00:00:00
0002 3 10 MICCOLI Nicolas O GRANDE SYNTHE 01:31:57 Senior M 2 00:00:00 00:00:00 00:00:00 00:00:00 00:00:00 00:00:00 00:00:00 00:00:00
0003 3 5 LEVECKE Milan LINGIER VERSLUYS 01:31:58 Senior M 3 00:00:00 00:00:00 00:00:00 00:00:00 00:00:00 00:00:00 00:00:00 00:00:00
0004 3 2 POUILLY Félix CC NOGENT / OISE 01:32:00 Senior M 4 00:00:00 00:00:00 00:00:00 00:00:00 00:00:00 00:00:00 00:00:00 00:00:00
0005 3 3 LIMOUSIN Frédéric O GRANDE SYNTHE 01:32:03 Master 1 M 1 00:00:00 00:00:00 00:00:00 00:00:00 00:00:00 00:00:00 00:00:00 00:00:00
0006 3 14 HARBONNIER Sebastien ESEG DOUAI 01:32:07 Master 1 M 2 00:00:00 00:00:00 00:00:00 00:00:00 00:00:00 00:00:00 00:00:00 00:00:00
0007 3 4 BOUCHER David 01:32:21 Master 1 M 3 00:00:00 00:00:00 00:00:00 00:00:00 00:00:00 00:00:00 00:00:00 00:00:00
0008 3 17 RONDELEZ Bjorn LINGIER VERSLUYS 01:32:57 Master 1 M 4 00:00:00 00:00:00 00:00:00 00:00:00 00:00:00 00:00:00 00:00:00 00:00:00
0009 3 8 VANDENBULCKE Hannes DE MAES BOYS VEU 01:33:57 Master 1 M 5 00:00:00 00:00:00 00:00:00 00:00:00 00:00:00 00:00:00 00:00:00 00:00:00
0010 3 13 MASSON Christophe EC RAISMES PETIT 01:33:59 Master 1 M 6 00:00:00 00:00:00 00:00:00 00:00:00 00:00:00 00:00:00 00:00:00 00:00:00
0011 3 12 DELALEAU Alexis O GRANDE SYNTHE 01:34:39 Jeunes M 1 00:00:00 00:00:00 00:00:00 00:00:00 00:00:00 00:00:00 00:00:00 00:00:00
0012 3 1 PETIT Adrien SC DE L'ARTOIS 01:34:44 Senior M 5 00:00:00 00:00:00 00:00:00 00:00:00 00:00:00 00:00:00 00:00:00 00:00:00
0013 3 124 PYLYSER Dieter VANNEUVILLE SPOR 01:36:38 Master 1 M 7 00:00:00 00:00:00 00:00:00 00:00:00 00:00:00 00:00:00 00:00:00 00:00:00
0014 3 19 SUAREZ MARTINEZ Kévin COLBA SUPERANO 01:36:38 Senior M 6 00:00:00 00:00:00 00:00:00 00:00:00 00:00:00 00:00:00 00:00:00 00:00:00
0015 3 136 VERMEEREN Xavier TRUST MTB TEAM 01:36:39 Master 1 M 8 00:00:00 00:00:00 00:00:00 00:00:00 00:00:00 00:00:00 00:00:00 00:00:00
0016 3 113 DEQUIDT Christophe 01:36:41 Senior M 7 00:00:00 00:00:00 00:00:00 00:00:00 00:00:00 00:00:00 00:00:00 00:00:00
0017 3 25 DOURLENS Charles Antoine O GRANDE SYNTHE 01:36:41 Jeunes M 2 00:00:00 00:00:00 00:00:00 00:00:00 00:00:00 00:00:00 00:00:00 00:00:00
0018 3 37 SEYNAVE Vincent VANOMOBIL CYCLIN 01:36:42 Master 1 M 9 00:00:00 00:00:00 00:00:00 00:00:00 00:00:00 00:00:00 00:00:00 00:00:00
0019 3 114 DEQUIDT Frederik 01:36:45 Senior M 8 00:00:00 00:00:00 00:00:00 00:00:00 00:00:00 00:00:00 00:00:00 00:00:00
0020 3 137 DECLERCQ Wouter TRUST MTB TEAM 01:36:46 Master 2 M 1 00:00:00 00:00:00 00:00:00 00:00:00 00:00:00 00:00:00 00:00:00 00:00:00
0021 3 87 CLOUTIER Didier O GRANDE SYNTHE 01:36:48 Master 2 M 2 00:00:00 00:00:00 00:00:00 00:00:00 00:00:00 00:00:00 00:00:00 00:00:00
0022 3 11 MARCQ Julien TRIATHLON LITTOR 01:36:49 Master 1 M 10 00:00:00 00:00:00 00:00:00 00:00:00 00:00:00 00:00:00 00:00:00 00:00:00
0023 3 135 RANDOUX David 01:37:49 Master 2 M 3 00:00:00 00:00:00 00:00:00 00:00:00 00:00:00 00:00:00 00:00:00 00:00:00
0024 3 115 CAPOEN Mehdy WTC DE BERGHAZEN 01:38:18 Master 1 M 11 00:00:00 00:00:00 00:00:00 00:00:00 00:00:00 00:00:00 00:00:00 00:00:00
0025 3 75 DE SMET Dries CT FIETSEN VANDE 01:41:25 Senior M 9 00:00:00 00:00:00 00:00:00 00:00:00 00:00:00 00:00:00 00:00:00 00:00:00
0026 3 192 VERHENNE Benjamin 01:41:43 Senior M 10 00:00:00 00:00:00 00:00:00 00:00:00 00:00:00 00:00:00 00:00:00 00:00:00
0027 3 120 DEMUNCK Eddy DE MAES BOYS VEU 01:41:43 Master 2 M 4 00:00:00 00:00:00 00:00:00 00:00:00 00:00:00 00:00:00 00:00:00 00:00:00
0028 3 109 DEPOORTER Steven 01:41:53 Master 2 M 5 00:00:00 00:00:00 00:00:00 00:00:00 00:00:00 00:00:00 00:00:00 00:00:00
0029 3 7 REGOST Augustin RLC PUNEENNE 01:42:28 Senior M 11 00:00:00 00:00:00 00:00:00 00:00:00 00:00:00 00:00:00 00:00:00 00:00:00
0030 3 74 VANDEPUTTE Gunter CT FIETSEN VANDE 01:42:34 Master 2 M 6 00:00:00 00:00:00 00:00:00 00:00:00 00:00:00 00:00:00 00:00:00 00:00:00
0031 3 131 BAUMONT Benjamin VTT ST AMAND LES 01:43:21 Master 1 M 12 00:00:00 00:00:00 00:00:00 00:00:00 00:00:00 00:00:00 00:00:00 00:00:00
0032 3 15 DERIAUX Florian EC RAISMES PETIT 01:43:23 Senior M 12 00:00:00 00:00:00 00:00:00 00:00:00 00:00:00 00:00:00 00:00:00 00:00:00
0033 3 68 VANDEVIVERE Frederick 01:43:41 Master 1 M 13 00:00:00 00:00:00 00:00:00 00:00:00 00:00:00 00:00:00 00:00:00 00:00:00
0034 3 161 WILLIATTE Benjamin VTT ST AMAND LES 01:43:46 Senior M 13 00:00:00 00:00:00 00:00:00 00:00:00 00:00:00 00:00:00 00:00:00 00:00:00
0035 3 123 DELTOUR Cédric TEAM VTT EKOI PA 01:43:46 Master 1 M 14 00:00:00 00:00:00 00:00:00 00:00:00 00:00:00 00:00:00 00:00:00 00:00:00
0036 3 142 ROUSSEL Sebastien 01:43:50 Master 2 M 7 00:00:00 00:00:00 00:00:00 00:00:00 00:00:00 00:00:00 00:00:00 00:00:00
0037 3 174 KEVIN Vynck ROYAL ANTWERP BI 01:44:49 Senior M 14 00:00:00 00:00:00 00:00:00 00:00:00 00:00:00 00:00:00 00:00:00 00:00:00
0038 3 139 MOEYAERT Matthias CYCLING TEAM DE 01:44:54 Senior M 15 00:00:00 00:00:00 00:00:00 00:00:00 00:00:00 00:00:00 00:00:00 00:00:00
0039 3 83 DESCHILDER John 01:44:55 Master 2 M 8 00:00:00 00:00:00 00:00:00 00:00:00 00:00:00 00:00:00 00:00:00 00:00:00
0040 3 177 CHEVANCE Kévin ESEG DOUAI 01:45:07 Senior M 16 00:00:00 00:00:00 00:00:00 00:00:00 00:00:00 00:00:00 00:00:00 00:00:00
0041 3 134 PILLEN Jelle 01:45:14 Master 1 M 15 00:00:00 00:00:00 00:00:00 00:00:00 00:00:00 00:00:00 00:00:00 00:00:00
0042 3 65 POPIEUL Régis O GRANDE SYNTHE 01:45:43 Master 2 M 9 00:00:00 00:00:00 00:00:00 00:00:00 00:00:00 00:00:00 00:00:00 00:00:00
0043 3 95 LECOLIER Benoit X2 POP 01:45:44 Master 1 M 16 00:00:00 00:00:00 00:00:00 00:00:00 00:00:00 00:00:00 00:00:00 00:00:00
0044 3 101 CLAERHOUT Kristof CT T VERSCHIL 01:45:47 Master 1 M 17 00:00:00 00:00:00 00:00:00 00:00:00 00:00:00 00:00:00 00:00:00 00:00:00
0045 3 99 CALLEWAERT Patrick DE MAES BOYS VEU 01:45:56 Master 2 M 10 00:00:00 00:00:00 00:00:00 00:00:00 00:00:00 00:00:00 00:00:00 00:00:00
0046 3 176 JAECKENS Jürgen WTC DE BERGHAZEN 01:46:05 Master 2 M 11 00:00:00 00:00:00 00:00:00 00:00:00 00:00:00 00:00:00 00:00:00 00:00:00
0047 3 100 WILLEMS Sam CAMABIKE 01:47:01 Senior M 17 00:00:00 00:00:00 00:00:00 00:00:00 00:00:00 00:00:00 00:00:00 00:00:00
0048 3 27 BECK Bruno 01:47:01 Master 1 M 18 00:00:00 00:00:00 00:00:00 00:00:00 00:00:00 00:00:00 00:00:00 00:00:00
0049 3 31 DUCROCQ Anthony TRIATHLON CLUB B 01:47:24 Senior M 18 00:00:00 00:00:00 00:00:00 00:00:00 00:00:00 00:00:00 00:00:00 00:00:00
0050 3 151 BONNAY Jerome US ST ANDRE - DI 01:47:25 Master 2 M 12 00:00:00 00:00:00 00:00:00 00:00:00 00:00:00 00:00:00 00:00:00 00:00:00
0051 3 94 LECOLIER Roland TEAM VTT EKOI PA 01:47:26 Master 4 M 1 00:00:00 00:00:00 00:00:00 00:00:00 00:00:00 00:00:00 00:00:00 00:00:00
0052 3 28 NASKRET Ludovic 01:47:44 Master 1 M 19 00:00:00 00:00:00 00:00:00 00:00:00 00:00:00 00:00:00 00:00:00 00:00:00
0053 3 147 MORANO Emmanuel VTT ST AMAND LES 01:47:45 Master 1 M 20 00:00:00 00:00:00 00:00:00 00:00:00 00:00:00 00:00:00 00:00:00 00:00:00
0054 3 103 VANDEWALLE Frank WTC DE BERGHAZEN 01:47:52 Master 1 M 21 00:00:00 00:00:00 00:00:00 00:00:00 00:00:00 00:00:00 00:00:00 00:00:00
0055 3 57 LAMBIN Jean-Michel WATTEN 01:48:23 Master 2 M 13 00:00:00 00:00:00 00:00:00 00:00:00 00:00:00 00:00:00 00:00:00 00:00:00
0056 3 106 DEMEY Rik WESTHOEK MOUNTAI 01:48:51 Master 3 M 1 00:00:00 00:00:00 00:00:00 00:00:00 00:00:00 00:00:00 00:00:00 00:00:00
0057 3 173 SCHERNU Christophe VERLINGHEM 01:48:55 Master 2 M 14 00:00:00 00:00:00 00:00:00 00:00:00 00:00:00 00:00:00 00:00:00 00:00:00
0058 3 85 HIDDEN Thierry TRIATHLON LITTOR 01:49:00 Master 3 M 2 00:00:00 00:00:00 00:00:00 00:00:00 00:00:00 00:00:00 00:00:00 00:00:00
0059 3 127 BARBOILLE Bruno U.C.LOON-PLAGE 01:49:00 Master 3 M 3 00:00:00 00:00:00 00:00:00 00:00:00 00:00:00 00:00:00 00:00:00 00:00:00
0060 3 122 KOCHANSKI Philippe US COUDEKERQUOIS 01:49:00 Master 3 M 4 00:00:00 00:00:00 00:00:00 00:00:00 00:00:00 00:00:00 00:00:00 00:00:00
0061 3 56 PRUVOST Pruvost 01:49:21 Master 3 M 5 00:00:00 00:00:00 00:00:00 00:00:00 00:00:00 00:00:00 00:00:00 00:00:00
0062 3 79 DELAMOTTE Florent TRIATHLON LITTOR 01:49:36 Master 1 M 22 00:00:00 00:00:00 00:00:00 00:00:00 00:00:00 00:00:00 00:00:00 00:00:00
0063 3 189 WORME Jonathan Triathlon 01:49:38 Master 1 M 23 00:00:00 00:00:00 00:00:00 00:00:00 00:00:00 00:00:00 00:00:00 00:00:00
0064 3 62 DESCAMPS Pascal TRIATHLON LITTOR 01:51:32 Master 2 M 15 00:00:00 00:00:00 00:00:00 00:00:00 00:00:00 00:00:00 00:00:00 00:00:00
0065 3 170 LEROY Nicolas MASSALIA 01:52:16 Master 2 M 16 00:00:00 00:00:00 00:00:00 00:00:00 00:00:00 00:00:00 00:00:00 00:00:00
0066 3 89 OBEIN Yannick TRIATHLON LITTOR 01:52:24 Master 2 M 17 00:00:00 00:00:00 00:00:00 00:00:00 00:00:00 00:00:00 00:00:00 00:00:00
0067 3 52 VAN DE WALLE Mike AUTOGLAS WETTERE 01:52:31 Master 1 M 24 00:00:00 00:00:00 00:00:00 00:00:00 00:00:00 00:00:00 00:00:00 00:00:00
0068 3 178 RYCKEMBUSCH Anthony CH'TIS POTES 62 01:52:32 Senior M 19 00:00:00 00:00:00 00:00:00 00:00:00 00:00:00 00:00:00 00:00:00 00:00:00
0069 3 64 REQUENA Herve TRIATHLON LITTOR 01:52:35 Master 2 M 18 00:00:00 00:00:00 00:00:00 00:00:00 00:00:00 00:00:00 00:00:00 00:00:00
0070 3 92 CHARLEMAGNE Charlemagne 01:52:57 Master 1 M 25 00:00:00 00:00:00 00:00:00 00:00:00 00:00:00 00:00:00 00:00:00 00:00:00
0071 3 60 RINGOT Romain CC MANQUEVILLE L 01:53:04 Senior M 20 00:00:00 00:00:00 00:00:00 00:00:00 00:00:00 00:00:00 00:00:00 00:00:00
0072 3 179 NOPPE Christophe 01:53:11 Master 2 M 19 00:00:00 00:00:00 00:00:00 00:00:00 00:00:00 00:00:00 00:00:00 00:00:00
0073 3 81 VERBRUGGHE Jacky TRIATHLON LITTOR 01:53:28 Master 3 M 6 00:00:00 00:00:00 00:00:00 00:00:00 00:00:00 00:00:00 00:00:00 00:00:00
0074 3 30 QUIQUET Christophe TRIATHLON CLUB B 01:53:28 Master 3 M 7 00:00:00 00:00:00 00:00:00 00:00:00 00:00:00 00:00:00 00:00:00 00:00:00
0075 3 84 WAELES Olivier TRIATHLON LITTOR 01:54:09 Master 1 M 26 00:00:00 00:00:00 00:00:00 00:00:00 00:00:00 00:00:00 00:00:00 00:00:00
0076 3 110 CARPENTIER Christophe XTREM'RIDERS 01:54:17 Master 1 M 27 00:00:00 00:00:00 00:00:00 00:00:00 00:00:00 00:00:00 00:00:00 00:00:00
0077 3 21 LOBEL Laurent 01:54:30 Master 1 M 28 00:00:00 00:00:00 00:00:00 00:00:00 00:00:00 00:00:00 00:00:00 00:00:00
0078 3 156 DELANCKER Jan TRUST MTB TEAM 01:54:31 Master 2 M 20 00:00:00 00:00:00 00:00:00 00:00:00 00:00:00 00:00:00 00:00:00 00:00:00
0079 3 22 BELLET Richard 01:54:34 Senior M 21 00:00:00 00:00:00 00:00:00 00:00:00 00:00:00 00:00:00 00:00:00 00:00:00
0080 3 82 BOCQUET Philippe TRIATHLON CLUB B 01:54:37 Master 2 M 21 00:00:00 00:00:00 00:00:00 00:00:00 00:00:00 00:00:00 00:00:00 00:00:00
0081 3 145 LEVECKE Sophie CYCLO BIKERS 01:54:41 Master 2 F 1 00:00:00 00:00:00 00:00:00 00:00:00 00:00:00 00:00:00 00:00:00 00:00:00
0082 3 29 KLIS Didier US COUDEKERQUOIS 01:55:51 Master 3 M 8 00:00:00 00:00:00 00:00:00 00:00:00 00:00:00 00:00:00 00:00:00 00:00:00
0083 3 152 KROL Michael LES DEJANTES DE 01:56:08 Master 1 M 29 00:00:00 00:00:00 00:00:00 00:00:00 00:00:00 00:00:00 00:00:00 00:00:00
0084 3 43 VACQUERIE Pierre US COUDEKERQUOIS 01:56:21 Master 3 M 9 00:00:00 00:00:00 00:00:00 00:00:00 00:00:00 00:00:00 00:00:00 00:00:00
0085 3 102 GENEYN Stijn 01:56:35 Master 1 M 30 00:00:00 00:00:00 00:00:00 00:00:00 00:00:00 00:00:00 00:00:00 00:00:00
0086 3 86 DE BRUYNE Olivier TEAM VTT EKOI PA 01:56:49 Master 1 M 31 00:00:00 00:00:00 00:00:00 00:00:00 00:00:00 00:00:00 00:00:00 00:00:00
0087 3 18 PETIT Charlotte HUCHENNEVILLE TU 01:56:49 Senior F 1 00:00:00 00:00:00 00:00:00 00:00:00 00:00:00 00:00:00 00:00:00 00:00:00
0088 3 54 PETIT Gonzague 01:56:51 Master 1 M 32 00:00:00 00:00:00 00:00:00 00:00:00 00:00:00 00:00:00 00:00:00 00:00:00
0089 3 168 PAREYN Jasper 01:56:52 Senior M 22 00:00:00 00:00:00 00:00:00 00:00:00 00:00:00 00:00:00 00:00:00 00:00:00
0090 3 44 DEPATURE Franck SKWAL ATHLON 01:57:06 Master 1 M 33 00:00:00 00:00:00 00:00:00 00:00:00 00:00:00 00:00:00 00:00:00 00:00:00
0091 3 194 SAILLON Ludovic Isbergues 01:57:10 Master 1 M 34 00:00:00 00:00:00 00:00:00 00:00:00 00:00:00 00:00:00 00:00:00 00:00:00
0092 3 153 COUSIN Frédéric LOON PLAGE 01:58:05 Master 2 M 22 00:00:00 00:00:00 00:00:00 00:00:00 00:00:00 00:00:00 00:00:00 00:00:00
0093 3 33 DEKYNDT Gregory US COUDEKERQUOIS 01:58:06 Master 2 M 23 00:00:00 00:00:00 00:00:00 00:00:00 00:00:00 00:00:00 00:00:00 00:00:00
0094 3 146 CALLENS Kevin 01:58:11 Senior M 23 00:00:00 00:00:00 00:00:00 00:00:00 00:00:00 00:00:00 00:00:00 00:00:00
0095 3 158 DELHAYE Rudy VC ESCAUT ANZIN 01:58:13 Senior M 24 00:00:00 00:00:00 00:00:00 00:00:00 00:00:00 00:00:00 00:00:00 00:00:00
0096 3 112 DEGRAVE Rudi MTB DE DUNEKEUNT 01:59:27 Master 3 M 10 00:00:00 00:00:00 00:00:00 00:00:00 00:00:00 00:00:00 00:00:00 00:00:00
0097 3 108 CANTIN David XTREM'RIDERS 01:59:43 Master 1 M 35 00:00:00 00:00:00 00:00:00 00:00:00 00:00:00 00:00:00 00:00:00 00:00:00
0098 3 181 LEGRAND Claude LES DEJANTES DE 02:00:05 Master 3 M 11 00:00:00 00:00:00 00:00:00 00:00:00 00:00:00 00:00:00 00:00:00 00:00:00
0099 3 50 DHONDT Sylvain 02:00:12 Master 2 M 24 00:00:00 00:00:00 00:00:00 00:00:00 00:00:00 00:00:00 00:00:00 00:00:00
0100 3 77 LAURENT Jean Francois TRIATHLON CLUB B 02:00:12 Master 3 M 12 00:00:00 00:00:00 00:00:00 00:00:00 00:00:00 00:00:00 00:00:00 00:00:00
0101 3 188 BECUWE Samuel Team VTT Ekoi 02:00:14 Master 2 M 25 00:00:00 00:00:00 00:00:00 00:00:00 00:00:00 00:00:00 00:00:00 00:00:00
0102 3 148 RAMON Frederic OMAX TEAM 02:00:27 Master 2 M 26 00:00:00 00:00:00 00:00:00 00:00:00 00:00:00 00:00:00 00:00:00 00:00:00
0103 3 98 LE GUIFF Eddy 02:02:14 Master 2 M 27 00:00:00 00:00:00 00:00:00 00:00:00 00:00:00 00:00:00 00:00:00 00:00:00
0104 3 20 EVERAERT Michel US COUDEKERQUOIS 02:02:16 Master 3 M 13 00:00:00 00:00:00 00:00:00 00:00:00 00:00:00 00:00:00 00:00:00 00:00:00
0105 3 117 TRUWANT Patrick WTC DE BERGHAZEN 02:02:52 Master 2 M 28 00:00:00 00:00:00 00:00:00 00:00:00 00:00:00 00:00:00 00:00:00 00:00:00
0106 3 116 PAREYN Jan WTC DE BERGHAZEN 02:02:52 Master 3 M 14 00:00:00 00:00:00 00:00:00 00:00:00 00:00:00 00:00:00 00:00:00 00:00:00
0107 3 76 ESQUENET Patrick TRIATHLON CLUB B 02:02:52 Master 3 M 15 00:00:00 00:00:00 00:00:00 00:00:00 00:00:00 00:00:00 00:00:00 00:00:00
0108 3 69 MAHROUG Elhadj TRIATHLON LITTOR 02:02:59 Master 2 M 29 00:00:00 00:00:00 00:00:00 00:00:00 00:00:00 00:00:00 00:00:00 00:00:00
0109 3 187 VANCAERIJ Frederick 02:03:21 Master 1 M 36 00:00:00 00:00:00 00:00:00 00:00:00 00:00:00 00:00:00 00:00:00 00:00:00
0110 3 48 DEFOORT Thierry CASSEL VTT 02:04:35 Master 2 M 30 00:00:00 00:00:00 00:00:00 00:00:00 00:00:00 00:00:00 00:00:00 00:00:00
0111 3 51 KULUS Sylvain DUNKERQUE LITTOR 02:04:37 Master 1 M 37 00:00:00 00:00:00 00:00:00 00:00:00 00:00:00 00:00:00 00:00:00 00:00:00
0112 3 160 VANDAMME Fabien TRIATHLON LITTOR 02:04:44 Senior M 25 00:00:00 00:00:00 00:00:00 00:00:00 00:00:00 00:00:00 00:00:00 00:00:00
0113 3 53 LOOTEN Bernard TRIATHLON LITTOR 02:04:48 Master 2 M 31 00:00:00 00:00:00 00:00:00 00:00:00 00:00:00 00:00:00 00:00:00 00:00:00
0114 3 201 THOMAS Benjamin 02:04:48 Master 1 M 38 00:00:00 00:00:00 00:00:00 00:00:00 00:00:00 00:00:00 00:00:00 00:00:00
0115 3 34 VIGNOLLES / RATT Sylvain / Nicola AMIENS TRIATHLON 02:05:20 Master 2 M 32 00:00:00 00:00:00 00:00:00 00:00:00 00:00:00 00:00:00 00:00:00 00:00:00
0116 3 71 VANDEWALLE Rik DE DEUNEKEUNTJES 02:05:33 Master 4 M 2 00:00:00 00:00:00 00:00:00 00:00:00 00:00:00 00:00:00 00:00:00 00:00:00
0117 3 90 THOOR Bernard CH'TIS POTES 62 02:06:02 Master 2 M 33 00:00:00 00:00:00 00:00:00 00:00:00 00:00:00 00:00:00 00:00:00 00:00:00
0118 3 32 FOURMEAUX Rémy LES DEJANTES DE 02:06:11 Master 3 M 16 00:00:00 00:00:00 00:00:00 00:00:00 00:00:00 00:00:00 00:00:00 00:00:00
0119 3 61 DEWAELE Michel TRIATHLON LITTOR 02:06:13 Master 4 M 3 00:00:00 00:00:00 00:00:00 00:00:00 00:00:00 00:00:00 00:00:00 00:00:00
0120 3 70 VISTOT Ludovic TRIATHLON LITTOR 02:06:32 Master 3 M 17 00:00:00 00:00:00 00:00:00 00:00:00 00:00:00 00:00:00 00:00:00 00:00:00
0121 3 169 VERBANCK Xavier O GRANDE SYNTHE 02:08:30 Master 1 M 39 00:00:00 00:00:00 00:00:00 00:00:00 00:00:00 00:00:00 00:00:00 00:00:00
0122 3 157 VANDAELE Stephane 02:08:42 Master 2 M 34 00:00:00 00:00:00 00:00:00 00:00:00 00:00:00 00:00:00 00:00:00 00:00:00
0123 3 78 MERLIN Gregory TRIATHLON CLUB B 02:08:53 Master 2 M 35 00:00:00 00:00:00 00:00:00 00:00:00 00:00:00 00:00:00 00:00:00 00:00:00
0124 3 163 HACHE Didier TRIATHLON CLUB B 02:09:36 Master 3 M 18 00:00:00 00:00:00 00:00:00 00:00:00 00:00:00 00:00:00 00:00:00 00:00:00
0125 3 171 MASCOT Grégory TRIATHLON CLUB B 02:10:27 Master 2 M 36 00:00:00 00:00:00 00:00:00 00:00:00 00:00:00 00:00:00 00:00:00 00:00:00
0126 3 23 BELLET Jacques US COUDEKERQUOIS 02:10:44 Master 3 M 19 00:00:00 00:00:00 00:00:00 00:00:00 00:00:00 00:00:00 00:00:00 00:00:00
0127 3 80 FOURMENTEL Yannick US COUDEKERQUOIS 02:11:21 Master 3 M 20 00:00:00 00:00:00 00:00:00 00:00:00 00:00:00 00:00:00 00:00:00 00:00:00
0128 3 91 BOUCHERY Rémi TRIATHLON LITTOR 02:11:30 Master 2 M 37 00:00:00 00:00:00 00:00:00 00:00:00 00:00:00 00:00:00 00:00:00 00:00:00
0129 3 39 OURDOUILLIE Yannick CCFVL 02:11:51 Master 3 M 21 00:00:00 00:00:00 00:00:00 00:00:00 00:00:00 00:00:00 00:00:00 00:00:00
0130 3 40 LEBLEU Frederic CCFVL 02:11:51 Master 2 M 38 00:00:00 00:00:00 00:00:00 00:00:00 00:00:00 00:00:00 00:00:00 00:00:00
0131 3 107 MAHIEUX Cedric 02:12:53 Master 2 M 39 00:00:00 00:00:00 00:00:00 00:00:00 00:00:00 00:00:00 00:00:00 00:00:00
0132 3 185 DUPREZ Pierre 02:13:32 Senior M 26 00:00:00 00:00:00 00:00:00 00:00:00 00:00:00 00:00:00 00:00:00 00:00:00
0133 3 154 BAELEN Delphine SKWAL ATHLON 02:15:23 Master 2 F 2 00:00:00 00:00:00 00:00:00 00:00:00 00:00:00 00:00:00 00:00:00 00:00:00
0134 3 155 BAELEN Dominique SKWAL ATHLON 02:15:24 Master 2 M 40 00:00:00 00:00:00 00:00:00 00:00:00 00:00:00 00:00:00 00:00:00 00:00:00
0135 3 72 BUCQUOYE Dimitri 02:16:17 Senior M 27 00:00:00 00:00:00 00:00:00 00:00:00 00:00:00 00:00:00 00:00:00 00:00:00
0136 3 96 DUCROCQ Ludovic 02:16:48 Master 1 M 40 00:00:00 00:00:00 00:00:00 00:00:00 00:00:00 00:00:00 00:00:00 00:00:00
0137 3 184 TIMMERMAN Nathan 02:16:50 Senior M 28 00:00:00 00:00:00 00:00:00 00:00:00 00:00:00 00:00:00 00:00:00 00:00:00
0138 3 63 BIZ Delphine TRIATHLON LITTOR 02:17:30 Master 2 F 3 00:00:00 00:00:00 00:00:00 00:00:00 00:00:00 00:00:00 00:00:00 00:00:00
0139 3 129 THULLIER Guillaume 02:17:34 Senior M 29 00:00:00 00:00:00 00:00:00 00:00:00 00:00:00 00:00:00 00:00:00 00:00:00
0140 3 45 BLONTROCK Joost MTB DE DUNEKEUNT 02:19:09 Master 2 M 41 00:00:00 00:00:00 00:00:00 00:00:00 00:00:00 00:00:00 00:00:00 00:00:00
0141 3 111 DUCROCQ Eric 02:19:19 Master 2 M 42 00:00:00 00:00:00 00:00:00 00:00:00 00:00:00 00:00:00 00:00:00 00:00:00
0142 3 38 THOOR Edouard TEAM SPORT BIKE 02:19:34 Senior M 30 00:00:00 00:00:00 00:00:00 00:00:00 00:00:00 00:00:00 00:00:00 00:00:00
0143 3 141 HENOCQ Emmanuel 02:20:49 Master 2 M 43 00:00:00 00:00:00 00:00:00 00:00:00 00:00:00 00:00:00 00:00:00 00:00:00
0144 3 182 BARRA Charles 02:20:53 Master 1 M 41 00:00:00 00:00:00 00:00:00 00:00:00 00:00:00 00:00:00 00:00:00 00:00:00
0145 3 119 DECLERCK Stephane 02:20:56 Master 2 M 44 00:00:00 00:00:00 00:00:00 00:00:00 00:00:00 00:00:00 00:00:00 00:00:00
0146 3 55 CARRU Laurent 02:21:09 Master 2 M 45 00:00:00 00:00:00 00:00:00 00:00:00 00:00:00 00:00:00 00:00:00 00:00:00
0147 3 49 SANTRAINE Romuald TEAM VTT EKOI PA 02:21:36 Master 1 M 42 00:00:00 00:00:00 00:00:00 00:00:00 00:00:00 00:00:00 00:00:00 00:00:00
0148 3 67 LEFEBVRE Fabrice TEAM VTT EKOI PA 02:21:36 Master 2 M 46 00:00:00 00:00:00 00:00:00 00:00:00 00:00:00 00:00:00 00:00:00 00:00:00
0149 3 126 CANDELIER Kévin 02:21:45 Senior M 31 00:00:00 00:00:00 00:00:00 00:00:00 00:00:00 00:00:00 00:00:00 00:00:00
0150 3 144 DELANNOY Allyson TRIATHLON CLUB B 02:23:32 Master 1 F 1 00:00:00 00:00:00 00:00:00 00:00:00 00:00:00 00:00:00 00:00:00 00:00:00
0151 3 164 RATON Denis VELO CLUB DE FAU 02:24:27 Senior M 32 00:00:00 00:00:00 00:00:00 00:00:00 00:00:00 00:00:00 00:00:00 00:00:00
0152 3 41 HENAUX Jean Pierre CCFVL 02:25:44 Master 3 M 22 00:00:00 00:00:00 00:00:00 00:00:00 00:00:00 00:00:00 00:00:00 00:00:00
0153 3 159 HOULIEZ David RANG DU FLIERS 02:26:35 Master 2 M 47 00:00:00 00:00:00 00:00:00 00:00:00 00:00:00 00:00:00 00:00:00 00:00:00
0154 3 191 BECUWE Armand 02:28:07 Master 1 M 43 00:00:00 00:00:00 00:00:00 00:00:00 00:00:00 00:00:00 00:00:00 00:00:00
0155 3 172 MORGANT Christian 02:29:19 Master 3 M 23 00:00:00 00:00:00 00:00:00 00:00:00 00:00:00 00:00:00 00:00:00 00:00:00
0156 3 66 JERUSEL Benoit 02:30:24 Senior M 33 00:00:00 00:00:00 00:00:00 00:00:00 00:00:00 00:00:00 00:00:00 00:00:00
0157 3 128 GUILLEMANT Loïc 02:31:42 Senior M 34 00:00:00 00:00:00 00:00:00 00:00:00 00:00:00 00:00:00 00:00:00 00:00:00
0158 3 42 VROOMHOUT Aymeric 02:33:11 Senior M 35 00:00:00 00:00:00 00:00:00 00:00:00 00:00:00 00:00:00 00:00:00 00:00:00
0159 3 165 FOURCADE Pierre CUINCY TRIATHLON 02:33:51 Master 4 M 4 00:00:00 00:00:00 00:00:00 00:00:00 00:00:00 00:00:00 00:00:00 00:00:00
0160 3 180 BOUTOILLE Franck 02:38:53 Master 3 M 24 00:00:00 00:00:00 00:00:00 00:00:00 00:00:00 00:00:00 00:00:00 00:00:00
0161 3 125 VASSEUR Ludovic 02:39:19 Master 1 M 44 00:00:00 00:00:00 00:00:00 00:00:00 00:00:00 00:00:00 00:00:00 00:00:00
0162 3 183 DEVROE Arnaud 02:39:31 Master 2 M 48 00:00:00 00:00:00 00:00:00 00:00:00 00:00:00 00:00:00 00:00:00 00:00:00
0163 3 97 TILLIE Oliver MTB DE DUNEKEUNT 02:41:48 Master 1 M 45 00:00:00 00:00:00 00:00:00 00:00:00 00:00:00 00:00:00 00:00:00 00:00:00
0164 3 133 DUPAS Rémy TRIATHLON LITTOR 02:43:07 Senior M 36 00:00:00 00:00:00 00:00:00 00:00:00 00:00:00 00:00:00 00:00:00 00:00:00
0165 3 118 DAENENS David BMX LA GORGUE 02:46:22 Master 2 M 49 00:00:00 00:00:00 00:00:00 00:00:00 00:00:00 00:00:00 00:00:00 00:00:00
0166 3 193 DAUDIER DE CASSI Tristant 02:46:46 Senior M 37 00:00:00 00:00:00 00:00:00 00:00:00 00:00:00 00:00:00 00:00:00 00:00:00
0167 3 190 JOLY Romain 02:46:47 Senior M 38 00:00:00 00:00:00 00:00:00 00:00:00 00:00:00 00:00:00 00:00:00 00:00:00
0168 3 167 DAUBIES Régis 02:52:57 Master 1 M 46 00:00:00 00:00:00 00:00:00 00:00:00 00:00:00 00:00:00 00:00:00 00:00:00
0169 3 166 DAREL Nicolas 02:52:57 Master 1 M 47 00:00:00 00:00:00 00:00:00 00:00:00 00:00:00 00:00:00 00:00:00 00:00:00
DNF 1 6 VANDENBROUCKE Jean-Denis 00:00:00 Master 1 M 0 00:00:00 00:00:00 00:00:00 00:00:00 00:00:00 00:00:00 00:00:00 00:00:00
DNF 1 16 PETIT Florian RACING CLUB ARRA 00:00:00 Senior M 0 00:00:00 00:00:00 00:00:00 00:00:00 00:00:00 00:00:00 00:00:00 00:00:00
DNF 2 24 COLIN Jean Louis 00:00:00 Master 2 M 0 00:00:00 00:00:00 00:00:00 00:00:00 00:00:00 00:00:00 00:00:00 00:00:00
DNF 2 35 ANDRIEUX Dimitri MARCK'ATHLON 00:00:00 Master 1 M 0 00:00:00 00:00:00 00:00:00 00:00:00 00:00:00 00:00:00 00:00:00 00:00:00
DNF 1 36 LESAGE Frank TRIATHLON LITTOR 00:00:00 Master 3 M 0 00:00:00 00:00:00 00:00:00 00:00:00 00:00:00 00:00:00 00:00:00 00:00:00
DNF 1 88 PRUVOST Nicolas SKWAL ATHLON 00:00:00 Senior M 0 00:00:00 00:00:00 00:00:00 00:00:00 00:00:00 00:00:00 00:00:00 00:00:00
DNF 0 93 GEOFFROY Jean-François TEAM VTT EKOI PA 00:00:00 Master 2 M 0 00:00:00 00:00:00 00:00:00 00:00:00 00:00:00 00:00:00 00:00:00 00:00:00
DNF 1 104 MAHIEU Fabrice US COUDEKERQUOIS 00:00:00 Master 2 M 0 00:00:00 00:00:00 00:00:00 00:00:00 00:00:00 00:00:00 00:00:00 00:00:00
DNF 2 105 LANGRAND Alexandre TRIATHLON LITTOR 00:00:00 Master 1 M 0 00:00:00 00:00:00 00:00:00 00:00:00 00:00:00 00:00:00 00:00:00 00:00:00
DNF 1 121 VANDERMEERSCH Emilien O GRANDE SYNTHE 00:00:00 Jeunes M 0 00:00:00 00:00:00 00:00:00 00:00:00 00:00:00 00:00:00 00:00:00 00:00:00
DNF 2 140 STELLA Enzo PEDALE MADELEINO 00:00:00 Jeunes M 0 00:00:00 00:00:00 00:00:00 00:00:00 00:00:00 00:00:00 00:00:00 00:00:00
DNF 2 143 DUPUIS Pierre O HESDIN MARCONN 00:00:00 Jeunes M 0 00:00:00 00:00:00 00:00:00 00:00:00 00:00:00 00:00:00 00:00:00 00:00:00
DNF 2 149 LUDOVIC Hemmerling 00:00:00 Master 2 M 0 00:00:00 00:00:00 00:00:00 00:00:00 00:00:00 00:00:00 00:00:00 00:00:00
DNF 1 162 DUBAELLE Eddy 00:00:00 Master 2 M 0 00:00:00 00:00:00 00:00:00 00:00:00 00:00:00 00:00:00 00:00:00 00:00:00
DNF 0 175 LOONES Tijs 00:00:00 Master 1 M 0 00:00:00 00:00:00 00:00:00 00:00:00 00:00:00 00:00:00 00:00:00 00:00:00
DNF 2 186 FIERS Fabien CASSEL VTT 00:00:00 Master 1 M 0 00:00:00 00:00:00 00:00:00 00:00:00 00:00:00 00:00:00 00:00:00 00:00:00
DNS 0 26 VANDENBUSSCHE Tony OMAX TEAM 00:00:00 Master 1 M 0 00:00:00 00:00:00 00:00:00 00:00:00 00:00:00 00:00:00 00:00:00 00:00:00
DNS 0 47 VANDEVOORDE Anthony ASS VTT 00:00:00 Master 2 M 0 00:00:00 00:00:00 00:00:00 00:00:00 00:00:00 00:00:00 00:00:00 00:00:00
DNS 0 58 SEURT Seurt 00:00:00 Master 1 F 0 00:00:00 00:00:00 00:00:00 00:00:00 00:00:00 00:00:00 00:00:00 00:00:00
DNS 0 59 DUJARDIN Julien 00:00:00 Master 1 M 0 00:00:00 00:00:00 00:00:00 00:00:00 00:00:00 00:00:00 00:00:00 00:00:00
DNS 0 73 PETIT Laurent 00:00:00 Master 2 M 0 00:00:00 00:00:00 00:00:00 00:00:00 00:00:00 00:00:00 00:00:00 00:00:00
DNS 0 130 BREYE Florent VC AMATEUR ST QU 00:00:00 Senior M 0 00:00:00 00:00:00 00:00:00 00:00:00 00:00:00 00:00:00 00:00:00 00:00:00
DNS 0 132 THOMAS Alexis 00:00:00 Master 1 M 0 00:00:00 00:00:00 00:00:00 00:00:00 00:00:00 00:00:00 00:00:00 00:00:00
DNS 0 138 FIERENS Wim MIDLON 00:00:00 Master 2 M 0 00:00:00 00:00:00 00:00:00 00:00:00 00:00:00 00:00:00 00:00:00 00:00:00
DNS 0 150 PRETRE Eric MONS TRIATHLON 00:00:00 Master 3 M 0 00:00:00 00:00:00 00:00:00 00:00:00 00:00:00 00:00:00 00:00:00 00:00:00